sensor_id;sensor_type;location;lat;lon;timestamp;P1;durP1;ratioP1;P2;durP2;ratioP2
18082;SDS011;9168;51.194;6.840;2023-01-08T00:01:03;7.72;;;2.47;;
18082;SDS011;9168;51.194;6.840;2023-01-08T00:03:31;12.50;;;2.90;;
18082;SDS011;9168;51.194;6.840;2023-01-08T00:06:01;8.57;;;2.20;;
18082;SDS011;9168;51.194;6.840;2023-01-08T00:08:29;8.63;;;1.98;;
18082;SDS011;9168;51.194;6.840;2023-01-08T00:10:56;5.93;;;1.90;;
18082;SDS011;9168;51.194;6.840;2023-01-08T00:13:24;5.32;;;2.30;;
18082;SDS011;9168;51.194;6.840;2023-01-08T00:15:51;2.88;;;1.73;;
18082;SDS011;9168;51.194;6.840;2023-01-08T00:18:20;7.43;;;1.90;;
18082;SDS011;9168;51.194;6.840;2023-01-08T00:20:48;3.63;;;1.80;;
18082;SDS011;9168;51.194;6.840;2023-01-08T00:23:15;4.10;;;1.58;;
18082;SDS011;9168;51.194;6.840;2023-01-08T00:25:43;2.53;;;1.65;;
18082;SDS011;9168;51.194;6.840;2023-01-08T00:28:10;3.80;;;1.55;;
18082;SDS011;9168;51.194;6.840;2023-01-08T00:30:39;2.30;;;1.38;;
18082;SDS011;9168;51.194;6.840;2023-01-08T00:33:06;4.32;;;1.90;;
18082;SDS011;9168;51.194;6.840;2023-01-08T00:35:34;3.17;;;1.38;;
18082;SDS011;9168;51.194;6.840;2023-01-08T00:38:02;4.03;;;1.50;;
18082;SDS011;9168;51.194;6.840;2023-01-08T00:40:29;2.90;;;1.55;;
18082;SDS011;9168;51.194;6.840;2023-01-08T00:42:56;5.93;;;1.70;;
18082;SDS011;9168;51.194;6.840;2023-01-08T00:45:22;5.53;;;1.67;;
18082;SDS011;9168;51.194;6.840;2023-01-08T00:47:49;6.78;;;1.80;;
18082;SDS011;9168;51.194;6.840;2023-01-08T00:50:16;3.70;;;1.60;;
18082;SDS011;9168;51.194;6.840;2023-01-08T00:52:44;4.20;;;1.83;;
18082;SDS011;9168;51.194;6.840;2023-01-08T00:55:11;2.92;;;1.75;;
18082;SDS011;9168;51.194;6.840;2023-01-08T00:57:38;5.63;;;1.70;;
18082;SDS011;9168;51.194;6.840;2023-01-08T01:00:06;3.10;;;1.70;;
18082;SDS011;9168;51.194;6.840;2023-01-08T01:02:36;2.53;;;1.40;;
18082;SDS011;9168;51.194;6.840;2023-01-08T01:05:05;3.67;;;1.80;;
18082;SDS011;9168;51.194;6.840;2023-01-08T01:07:34;4.00;;;2.00;;
18082;SDS011;9168;51.194;6.840;2023-01-08T01:10:02;3.63;;;1.90;;
18082;SDS011;9168;51.194;6.840;2023-01-08T01:12:29;4.65;;;1.67;;
18082;SDS011;9168;51.194;6.840;2023-01-08T01:14:56;3.63;;;1.60;;
18082;SDS011;9168;51.194;6.840;2023-01-08T01:17:23;3.10;;;2.08;;
18082;SDS011;9168;51.194;6.840;2023-01-08T01:19:50;2.78;;;1.52;;
18082;SDS011;9168;51.194;6.840;2023-01-08T01:22:17;3.35;;;1.70;;
18082;SDS011;9168;51.194;6.840;2023-01-08T01:24:43;4.30;;;1.65;;
18082;SDS011;9168;51.194;6.840;2023-01-08T01:27:12;3.45;;;1.60;;
18082;SDS011;9168;51.194;6.840;2023-01-08T01:29:38;4.68;;;1.67;;
18082;SDS011;9168;51.194;6.840;2023-01-08T01:32:05;4.72;;;1.80;;
18082;SDS011;9168;51.194;6.840;2023-01-08T01:34:33;5.68;;;1.70;;
18082;SDS011;9168;51.194;6.840;2023-01-08T01:37:00;3.78;;;1.65;;
18082;SDS011;9168;51.194;6.840;2023-01-08T01:39:28;6.30;;;1.60;;
18082;SDS011;9168;51.194;6.840;2023-01-08T01:41:55;4.82;;;1.60;;
18082;SDS011;9168;51.194;6.840;2023-01-08T01:47:16;4.50;;;1.70;;
18082;SDS011;9168;51.194;6.840;2023-01-08T01:49:49;3.28;;;1.77;;
18082;SDS011;9168;51.194;6.840;2023-01-08T01:52:21;2.85;;;1.60;;
18082;SDS011;9168;51.194;6.840;2023-01-08T01:54:49;3.97;;;1.83;;
18082;SDS011;9168;51.194;6.840;2023-01-08T01:57:17;5.00;;;1.83;;
18082;SDS011;9168;51.194;6.840;2023-01-08T01:59:44;4.10;;;2.05;;
18082;SDS011;9168;51.194;6.840;2023-01-08T02:02:14;7.50;;;2.30;;
18082;SDS011;9168;51.194;6.840;2023-01-08T02:04:41;4.03;;;1.85;;
18082;SDS011;9168;51.194;6.840;2023-01-08T02:07:10;3.88;;;2.20;;
18082;SDS011;9168;51.194;6.840;2023-01-08T02:09:42;4.40;;;2.17;;
18082;SDS011;9168;51.194;6.840;2023-01-08T02:12:14;3.20;;;1.80;;
18082;SDS011;9168;51.194;6.840;2023-01-08T02:14:56;6.78;;;1.90;;
18082;SDS011;9168;51.194;6.840;2023-01-08T02:17:31;5.72;;;2.70;;
18082;SDS011;9168;51.194;6.840;2023-01-08T02:20:05;3.58;;;1.70;;
18082;SDS011;9168;51.194;6.840;2023-01-08T02:22:40;4.15;;;2.08;;
18082;SDS011;9168;51.194;6.840;2023-01-08T02:25:16;3.40;;;1.98;;
18082;SDS011;9168;51.194;6.840;2023-01-08T02:27:53;3.35;;;1.95;;
18082;SDS011;9168;51.194;6.840;2023-01-08T02:30:22;4.90;;;2.08;;
18082;SDS011;9168;51.194;6.840;2023-01-08T02:32:50;6.90;;;2.38;;
18082;SDS011;9168;51.194;6.840;2023-01-08T02:35:17;5.47;;;2.30;;
18082;SDS011;9168;51.194;6.840;2023-01-08T02:37:44;6.00;;;2.03;;
18082;SDS011;9168;51.194;6.840;2023-01-08T02:40:16;7.05;;;2.50;;
18082;SDS011;9168;51.194;6.840;2023-01-08T02:42:50;7.25;;;2.30;;
18082;SDS011;9168;51.194;6.840;2023-01-08T02:45:30;5.18;;;2.40;;
18082;SDS011;9168;51.194;6.840;2023-01-08T02:48:06;6.70;;;2.20;;
18082;SDS011;9168;51.194;6.840;2023-01-08T02:50:36;7.15;;;2.10;;
18082;SDS011;9168;51.194;6.840;2023-01-08T02:53:08;5.13;;;1.92;;
18082;SDS011;9168;51.194;6.840;2023-01-08T02:55:39;3.75;;;1.98;;
18082;SDS011;9168;51.194;6.840;2023-01-08T02:58:11;3.33;;;1.98;;
18082;SDS011;9168;51.194;6.840;2023-01-08T03:00:39;6.38;;;2.03;;
18082;SDS011;9168;51.194;6.840;2023-01-08T03:03:09;4.00;;;2.17;;
18082;SDS011;9168;51.194;6.840;2023-01-08T03:05:40;7.70;;;2.00;;
18082;SDS011;9168;51.194;6.840;2023-01-08T03:08:10;3.90;;;2.05;;
18082;SDS011;9168;51.194;6.840;2023-01-08T03:10:38;5.75;;;2.17;;
18082;SDS011;9168;51.194;6.840;2023-01-08T03:13:09;5.45;;;1.90;;
18082;SDS011;9168;51.194;6.840;2023-01-08T03:15:45;4.70;;;2.50;;
18082;SDS011;9168;51.194;6.840;2023-01-08T03:18:14;5.95;;;2.30;;
18082;SDS011;9168;51.194;6.840;2023-01-08T03:20:45;5.07;;;2.42;;
18082;SDS011;9168;51.194;6.840;2023-01-08T03:23:14;6.95;;;2.85;;
18082;SDS011;9168;51.194;6.840;2023-01-08T03:25:43;8.57;;;2.58;;
18082;SDS011;9168;51.194;6.840;2023-01-08T03:28:14;10.30;;;2.78;;
18082;SDS011;9168;51.194;6.840;2023-01-08T03:30:46;9.05;;;2.95;;
18082;SDS011;9168;51.194;6.840;2023-01-08T03:33:14;6.72;;;2.55;;
18082;SDS011;9168;51.194;6.840;2023-01-08T03:35:43;5.20;;;2.85;;
18082;SDS011;9168;51.194;6.840;2023-01-08T03:38:14;5.10;;;2.50;;
18082;SDS011;9168;51.194;6.840;2023-01-08T03:40:50;6.72;;;2.78;;
18082;SDS011;9168;51.194;6.840;2023-01-08T03:43:22;4.07;;;2.35;;
18082;SDS011;9168;51.194;6.840;2023-01-08T03:45:50;4.45;;;2.33;;
18082;SDS011;9168;51.194;6.840;2023-01-08T03:48:21;7.00;;;2.30;;
18082;SDS011;9168;51.194;6.840;2023-01-08T03:50:49;5.38;;;2.78;;
18082;SDS011;9168;51.194;6.840;2023-01-08T03:53:16;4.82;;;2.50;;
18082;SDS011;9168;51.194;6.840;2023-01-08T03:55:43;5.30;;;2.15;;
18082;SDS011;9168;51.194;6.840;2023-01-08T03:58:10;5.88;;;2.22;;
18082;SDS011;9168;51.194;6.840;2023-01-08T04:00:38;5.38;;;2.40;;
18082;SDS011;9168;51.194;6.840;2023-01-08T04:03:05;7.47;;;2.35;;
18082;SDS011;9168;51.194;6.840;2023-01-08T04:05:32;3.95;;;2.17;;
18082;SDS011;9168;51.194;6.840;2023-01-08T04:07:59;4.60;;;2.15;;
18082;SDS011;9168;51.194;6.840;2023-01-08T04:10:26;4.93;;;2.63;;
18082;SDS011;9168;51.194;6.840;2023-01-08T04:12:53;4.18;;;2.08;;
18082;SDS011;9168;51.194;6.840;2023-01-08T04:15:19;3.55;;;2.30;;
18082;SDS011;9168;51.194;6.840;2023-01-08T04:17:48;6.40;;;2.25;;
18082;SDS011;9168;51.194;6.840;2023-01-08T04:20:15;10.00;;;2.40;;
18082;SDS011;9168;51.194;6.840;2023-01-08T04:22:41;3.58;;;2.10;;
18082;SDS011;9168;51.194;6.840;2023-01-08T04:25:08;7.60;;;2.55;;
18082;SDS011;9168;51.194;6.840;2023-01-08T04:27:35;8.27;;;2.83;;
18082;SDS011;9168;51.194;6.840;2023-01-08T04:30:03;4.90;;;2.58;;
18082;SDS011;9168;51.194;6.840;2023-01-08T04:32:30;3.65;;;2.17;;
18082;SDS011;9168;51.194;6.840;2023-01-08T04:34:59;4.93;;;1.98;;
18082;SDS011;9168;51.194;6.840;2023-01-08T04:37:25;4.82;;;2.33;;
18082;SDS011;9168;51.194;6.840;2023-01-08T04:39:52;7.68;;;2.67;;
18082;SDS011;9168;51.194;6.840;2023-01-08T04:42:19;8.93;;;2.00;;
18082;SDS011;9168;51.194;6.840;2023-01-08T04:44:46;3.10;;;1.88;;
18082;SDS011;9168;51.194;6.840;2023-01-08T04:47:13;4.63;;;2.03;;
18082;SDS011;9168;51.194;6.840;2023-01-08T04:49:40;5.43;;;1.92;;
18082;SDS011;9168;51.194;6.840;2023-01-08T04:52:08;4.10;;;2.15;;
18082;SDS011;9168;51.194;6.840;2023-01-08T04:54:35;4.10;;;1.95;;
18082;SDS011;9168;51.194;6.840;2023-01-08T04:57:02;5.45;;;2.17;;
18082;SDS011;9168;51.194;6.840;2023-01-08T04:59:29;3.08;;;1.70;;
18082;SDS011;9168;51.194;6.840;2023-01-08T05:01:56;3.30;;;1.88;;
18082;SDS011;9168;51.194;6.840;2023-01-08T05:04:23;3.60;;;1.73;;
18082;SDS011;9168;51.194;6.840;2023-01-08T05:06:49;2.35;;;1.95;;
18082;SDS011;9168;51.194;6.840;2023-01-08T05:09:18;5.50;;;1.77;;
18082;SDS011;9168;51.194;6.840;2023-01-08T05:11:44;4.35;;;1.52;;
18082;SDS011;9168;51.194;6.840;2023-01-08T05:14:11;2.58;;;1.40;;
18082;SDS011;9168;51.194;6.840;2023-01-08T05:16:38;4.18;;;1.40;;
18082;SDS011;9168;51.194;6.840;2023-01-08T05:19:05;2.67;;;1.33;;
18082;SDS011;9168;51.194;6.840;2023-01-08T05:21:32;2.78;;;1.30;;
18082;SDS011;9168;51.194;6.840;2023-01-08T05:23:59;3.88;;;1.75;;
18082;SDS011;9168;51.194;6.840;2023-01-08T05:26:27;2.28;;;1.27;;
18082;SDS011;9168;51.194;6.840;2023-01-08T05:28:54;4.13;;;1.30;;
18082;SDS011;9168;51.194;6.840;2023-01-08T05:31:21;5.53;;;1.20;;
18082;SDS011;9168;51.194;6.840;2023-01-08T05:33:48;3.60;;;1.10;;
18082;SDS011;9168;51.194;6.840;2023-01-08T05:36:15;7.18;;;1.40;;
18082;SDS011;9168;51.194;6.840;2023-01-08T05:38:42;4.05;;;1.20;;
18082;SDS011;9168;51.194;6.840;2023-01-08T05:41:09;1.83;;;1.05;;
18082;SDS011;9168;51.194;6.840;2023-01-08T05:43:38;2.38;;;1.23;;
18082;SDS011;9168;51.194;6.840;2023-01-08T05:46:05;3.33;;;1.13;;
18082;SDS011;9168;51.194;6.840;2023-01-08T05:48:32;2.15;;;1.17;;
18082;SDS011;9168;51.194;6.840;2023-01-08T05:51:00;2.08;;;1.08;;
18082;SDS011;9168;51.194;6.840;2023-01-08T05:53:27;4.68;;;0.98;;
18082;SDS011;9168;51.194;6.840;2023-01-08T05:55:59;2.67;;;1.20;;
18082;SDS011;9168;51.194;6.840;2023-01-08T05:58:26;4.00;;;1.10;;
18082;SDS011;9168;51.194;6.840;2023-01-08T06:00:59;1.95;;;1.10;;
18082;SDS011;9168;51.194;6.840;2023-01-08T06:03:27;2.67;;;0.98;;
18082;SDS011;9168;51.194;6.840;2023-01-08T06:05:56;2.83;;;1.20;;
18082;SDS011;9168;51.194;6.840;2023-01-08T06:08:24;3.83;;;1.20;;
18082;SDS011;9168;51.194;6.840;2023-01-08T06:10:50;1.60;;;1.00;;
18082;SDS011;9168;51.194;6.840;2023-01-08T06:13:17;4.22;;;1.45;;
18082;SDS011;9168;51.194;6.840;2023-01-08T06:15:44;2.67;;;1.05;;
18082;SDS011;9168;51.194;6.840;2023-01-08T06:18:12;3.10;;;1.02;;
18082;SDS011;9168;51.194;6.840;2023-01-08T06:20:39;3.75;;;1.30;;
18082;SDS011;9168;51.194;6.840;2023-01-08T06:23:06;4.75;;;1.50;;
18082;SDS011;9168;51.194;6.840;2023-01-08T06:25:33;4.40;;;1.08;;
18082;SDS011;9168;51.194;6.840;2023-01-08T06:28:00;5.85;;;1.42;;
18082;SDS011;9168;51.194;6.840;2023-01-08T06:30:27;6.20;;;1.15;;
18082;SDS011;9168;51.194;6.840;2023-01-08T06:32:54;7.13;;;1.42;;
18082;SDS011;9168;51.194;6.840;2023-01-08T06:35:23;5.07;;;1.15;;
18082;SDS011;9168;51.194;6.840;2023-01-08T06:37:50;2.67;;;1.00;;
18082;SDS011;9168;51.194;6.840;2023-01-08T06:40:17;1.83;;;0.90;;
18082;SDS011;9168;51.194;6.840;2023-01-08T06:42:44;13.10;;;1.60;;
18082;SDS011;9168;51.194;6.840;2023-01-08T06:45:11;9.35;;;1.88;;
18082;SDS011;9168;51.194;6.840;2023-01-08T06:47:38;5.13;;;1.20;;
18082;SDS011;9168;51.194;6.840;2023-01-08T06:50:05;4.97;;;0.75;;
18082;SDS011;9168;51.194;6.840;2023-01-08T06:52:33;7.57;;;1.00;;
18082;SDS011;9168;51.194;6.840;2023-01-08T06:55:00;7.40;;;1.00;;
18082;SDS011;9168;51.194;6.840;2023-01-08T06:57:28;3.58;;;0.70;;
18082;SDS011;9168;51.194;6.840;2023-01-08T06:59:55;6.40;;;0.80;;
18082;SDS011;9168;51.194;6.840;2023-01-08T07:02:22;3.95;;;0.75;;
18082;SDS011;9168;51.194;6.840;2023-01-08T07:04:49;2.58;;;0.73;;
18082;SDS011;9168;51.194;6.840;2023-01-08T07:07:16;3.47;;;0.80;;
18082;SDS011;9168;51.194;6.840;2023-01-08T07:09:44;3.05;;;0.65;;
18082;SDS011;9168;51.194;6.840;2023-01-08T07:12:11;6.28;;;1.05;;
18082;SDS011;9168;51.194;6.840;2023-01-08T07:14:39;2.80;;;0.63;;
18082;SDS011;9168;51.194;6.840;2023-01-08T07:17:06;7.50;;;1.08;;
18082;SDS011;9168;51.194;6.840;2023-01-08T07:19:33;2.90;;;1.17;;
18082;SDS011;9168;51.194;6.840;2023-01-08T07:22:00;6.07;;;1.30;;
18082;SDS011;9168;51.194;6.840;2023-01-08T07:24:27;5.07;;;1.10;;
18082;SDS011;9168;51.194;6.840;2023-01-08T07:26:55;4.35;;;0.93;;
18082;SDS011;9168;51.194;6.840;2023-01-08T07:29:22;4.50;;;0.82;;
18082;SDS011;9168;51.194;6.840;2023-01-08T07:31:49;5.72;;;1.55;;
18082;SDS011;9168;51.194;6.840;2023-01-08T07:34:16;5.43;;;0.80;;
18082;SDS011;9168;51.194;6.840;2023-01-08T07:36:43;6.15;;;0.93;;
18082;SDS011;9168;51.194;6.840;2023-01-08T07:39:10;7.75;;;0.93;;
18082;SDS011;9168;51.194;6.840;2023-01-08T07:41:36;5.40;;;0.70;;
18082;SDS011;9168;51.194;6.840;2023-01-08T07:44:05;8.02;;;1.00;;
18082;SDS011;9168;51.194;6.840;2023-01-08T07:46:32;3.88;;;1.20;;
18082;SDS011;9168;51.194;6.840;2023-01-08T07:48:58;5.20;;;0.98;;
18082;SDS011;9168;51.194;6.840;2023-01-08T07:51:25;3.80;;;0.80;;
18082;SDS011;9168;51.194;6.840;2023-01-08T07:53:53;9.95;;;1.58;;
18082;SDS011;9168;51.194;6.840;2023-01-08T07:56:21;5.70;;;1.27;;
18082;SDS011;9168;51.194;6.840;2023-01-08T07:58:48;6.13;;;1.10;;
18082;SDS011;9168;51.194;6.840;2023-01-08T08:01:17;10.68;;;1.55;;
18082;SDS011;9168;51.194;6.840;2023-01-08T08:03:44;7.70;;;1.10;;
18082;SDS011;9168;51.194;6.840;2023-01-08T08:06:10;10.63;;;1.38;;
18082;SDS011;9168;51.194;6.840;2023-01-08T08:08:37;5.80;;;1.00;;
18082;SDS011;9168;51.194;6.840;2023-01-08T08:11:04;6.85;;;1.25;;
18082;SDS011;9168;51.194;6.840;2023-01-08T08:13:31;8.48;;;1.30;;
18082;SDS011;9168;51.194;6.840;2023-01-08T08:16:01;7.40;;;1.40;;
18082;SDS011;9168;51.194;6.840;2023-01-08T08:18:30;6.60;;;1.25;;
18082;SDS011;9168;51.194;6.840;2023-01-08T08:20:57;8.32;;;1.38;;
18082;SDS011;9168;51.194;6.840;2023-01-08T08:23:28;8.50;;;1.65;;
18082;SDS011;9168;51.194;6.840;2023-01-08T08:25:56;12.32;;;1.98;;
18082;SDS011;9168;51.194;6.840;2023-01-08T08:28:23;9.15;;;2.20;;
18082;SDS011;9168;51.194;6.840;2023-01-08T08:30:51;12.40;;;2.67;;
18082;SDS011;9168;51.194;6.840;2023-01-08T08:33:17;11.32;;;1.70;;
18082;SDS011;9168;51.194;6.840;2023-01-08T08:35:48;7.85;;;1.88;;
18082;SDS011;9168;51.194;6.840;2023-01-08T08:38:15;8.27;;;1.60;;
18082;SDS011;9168;51.194;6.840;2023-01-08T08:40:42;7.60;;;1.50;;
18082;SDS011;9168;51.194;6.840;2023-01-08T08:43:09;9.38;;;1.75;;
18082;SDS011;9168;51.194;6.840;2023-01-08T08:45:36;13.13;;;2.60;;
18082;SDS011;9168;51.194;6.840;2023-01-08T08:48:04;7.93;;;1.35;;
18082;SDS011;9168;51.194;6.840;2023-01-08T08:50:32;13.95;;;1.85;;
18082;SDS011;9168;51.194;6.840;2023-01-08T08:53:00;13.85;;;2.00;;
18082;SDS011;9168;51.194;6.840;2023-01-08T08:55:28;12.15;;;1.88;;
18082;SDS011;9168;51.194;6.840;2023-01-08T08:58:00;10.02;;;1.73;;
18082;SDS011;9168;51.194;6.840;2023-01-08T09:00:28;11.25;;;2.20;;
18082;SDS011;9168;51.194;6.840;2023-01-08T09:02:54;12.20;;;1.88;;
18082;SDS011;9168;51.194;6.840;2023-01-08T09:05:21;14.13;;;2.40;;
18082;SDS011;9168;51.194;6.840;2023-01-08T09:07:48;11.85;;;2.35;;
18082;SDS011;9168;51.194;6.840;2023-01-08T09:10:17;22.23;;;2.70;;
18082;SDS011;9168;51.194;6.840;2023-01-08T09:12:43;9.68;;;1.83;;
18082;SDS011;9168;51.194;6.840;2023-01-08T09:15:10;12.40;;;2.17;;
18082;SDS011;9168;51.194;6.840;2023-01-08T09:17:37;15.55;;;2.30;;
18082;SDS011;9168;51.194;6.840;2023-01-08T09:20:04;9.77;;;2.17;;
18082;SDS011;9168;51.194;6.840;2023-01-08T09:22:32;15.52;;;2.10;;
18082;SDS011;9168;51.194;6.840;2023-01-08T09:24:59;15.70;;;2.00;;
18082;SDS011;9168;51.194;6.840;2023-01-08T09:27:27;10.00;;;2.00;;
18082;SDS011;9168;51.194;6.840;2023-01-08T09:29:54;12.88;;;1.88;;
18082;SDS011;9168;51.194;6.840;2023-01-08T09:32:21;10.13;;;1.85;;
18082;SDS011;9168;51.194;6.840;2023-01-08T09:34:47;12.88;;;2.08;;
18082;SDS011;9168;51.194;6.840;2023-01-08T09:37:14;6.45;;;1.70;;
18082;SDS011;9168;51.194;6.840;2023-01-08T09:39:41;11.45;;;1.60;;
18082;SDS011;9168;51.194;6.840;2023-01-08T09:42:09;12.40;;;1.77;;
18082;SDS011;9168;51.194;6.840;2023-01-08T09:44:41;14.23;;;1.98;;
18082;SDS011;9168;51.194;6.840;2023-01-08T09:47:15;8.90;;;1.70;;
18082;SDS011;9168;51.194;6.840;2023-01-08T09:49:50;10.45;;;1.80;;
18082;SDS011;9168;51.194;6.840;2023-01-08T09:52:19;12.88;;;2.17;;
18082;SDS011;9168;51.194;6.840;2023-01-08T09:54:46;7.18;;;1.67;;
18082;SDS011;9168;51.194;6.840;2023-01-08T09:57:14;13.88;;;1.70;;
18082;SDS011;9168;51.194;6.840;2023-01-08T09:59:45;8.25;;;1.65;;
18082;SDS011;9168;51.194;6.840;2023-01-08T10:02:13;5.78;;;1.35;;
18082;SDS011;9168;51.194;6.840;2023-01-08T10:04:41;11.10;;;1.30;;
18082;SDS011;9168;51.194;6.840;2023-01-08T10:07:10;11.15;;;1.85;;
18082;SDS011;9168;51.194;6.840;2023-01-08T10:09:43;8.65;;;1.80;;
18082;SDS011;9168;51.194;6.840;2023-01-08T10:12:10;9.68;;;1.73;;
18082;SDS011;9168;51.194;6.840;2023-01-08T10:14:38;7.20;;;1.30;;
18082;SDS011;9168;51.194;6.840;2023-01-08T10:17:15;4.60;;;1.45;;
18082;SDS011;9168;51.194;6.840;2023-01-08T10:19:49;5.60;;;1.20;;
18082;SDS011;9168;51.194;6.840;2023-01-08T10:22:16;4.05;;;1.27;;
18082;SDS011;9168;51.194;6.840;2023-01-08T10:24:45;5.05;;;1.13;;
18082;SDS011;9168;51.194;6.840;2023-01-08T10:27:13;8.07;;;1.20;;
18082;SDS011;9168;51.194;6.840;2023-01-08T10:29:41;6.13;;;1.75;;
18082;SDS011;9168;51.194;6.840;2023-01-08T10:32:08;8.88;;;1.35;;
18082;SDS011;9168;51.194;6.840;2023-01-08T10:34:42;7.43;;;1.25;;
18082;SDS011;9168;51.194;6.840;2023-01-08T10:37:15;7.90;;;1.75;;
18082;SDS011;9168;51.194;6.840;2023-01-08T10:39:51;5.57;;;1.25;;
18082;SDS011;9168;51.194;6.840;2023-01-08T10:42:20;5.60;;;1.33;;
18082;SDS011;9168;51.194;6.840;2023-01-08T10:44:55;5.88;;;1.00;;
18082;SDS011;9168;51.194;6.840;2023-01-08T10:47:25;4.38;;;1.02;;
18082;SDS011;9168;51.194;6.840;2023-01-08T10:49:55;7.18;;;1.30;;
18082;SDS011;9168;51.194;6.840;2023-01-08T10:52:27;7.93;;;1.33;;
18082;SDS011;9168;51.194;6.840;2023-01-08T10:54:57;6.88;;;1.23;;
18082;SDS011;9168;51.194;6.840;2023-01-08T10:57:35;10.05;;;1.33;;
18082;SDS011;9168;51.194;6.840;2023-01-08T11:00:20;5.45;;;1.20;;
18082;SDS011;9168;51.194;6.840;2023-01-08T11:02:48;3.28;;;1.20;;
18082;SDS011;9168;51.194;6.840;2023-01-08T11:05:16;7.65;;;1.33;;
18082;SDS011;9168;51.194;6.840;2023-01-08T11:07:46;9.90;;;1.52;;
18082;SDS011;9168;51.194;6.840;2023-01-08T11:10:20;6.07;;;1.23;;
18082;SDS011;9168;51.194;6.840;2023-01-08T11:12:53;9.80;;;1.50;;
18082;SDS011;9168;51.194;6.840;2023-01-08T11:15:28;4.75;;;1.73;;
18082;SDS011;9168;51.194;6.840;2023-01-08T11:18:03;6.22;;;1.30;;
18082;SDS011;9168;51.194;6.840;2023-01-08T11:20:41;5.13;;;1.35;;
18082;SDS011;9168;51.194;6.840;2023-01-08T11:23:12;8.55;;;1.33;;
18082;SDS011;9168;51.194;6.840;2023-01-08T11:25:44;6.63;;;1.17;;
18082;SDS011;9168;51.194;6.840;2023-01-08T11:28:18;5.63;;;1.60;;
18082;SDS011;9168;51.194;6.840;2023-01-08T11:30:53;5.75;;;1.45;;
18082;SDS011;9168;51.194;6.840;2023-01-08T11:33:25;7.30;;;1.35;;
18082;SDS011;9168;51.194;6.840;2023-01-08T11:35:59;6.78;;;1.13;;
18082;SDS011;9168;51.194;6.840;2023-01-08T11:38:29;7.47;;;1.20;;
18082;SDS011;9168;51.194;6.840;2023-01-08T11:40:59;7.03;;;1.25;;
18082;SDS011;9168;51.194;6.840;2023-01-08T11:43:39;4.28;;;1.10;;
18082;SDS011;9168;51.194;6.840;2023-01-08T11:46:23;4.03;;;1.30;;
18082;SDS011;9168;51.194;6.840;2023-01-08T11:49:05;5.80;;;1.48;;
18082;SDS011;9168;51.194;6.840;2023-01-08T11:51:53;7.85;;;1.58;;
18082;SDS011;9168;51.194;6.840;2023-01-08T11:54:44;8.45;;;1.60;;
18082;SDS011;9168;51.194;6.840;2023-01-08T11:57:23;6.15;;;1.27;;
18082;SDS011;9168;51.194;6.840;2023-01-08T12:00:08;9.77;;;1.58;;
18082;SDS011;9168;51.194;6.840;2023-01-08T12:02:50;3.53;;;0.80;;
18082;SDS011;9168;51.194;6.840;2023-01-08T12:05:26;4.75;;;1.17;;
18082;SDS011;9168;51.194;6.840;2023-01-08T12:07:59;6.78;;;1.55;;
18082;SDS011;9168;51.194;6.840;2023-01-08T12:10:30;3.33;;;1.15;;
18082;SDS011;9168;51.194;6.840;2023-01-08T12:13:07;5.32;;;0.93;;
18082;SDS011;9168;51.194;6.840;2023-01-08T12:15:52;6.68;;;0.93;;
18082;SDS011;9168;51.194;6.840;2023-01-08T12:18:31;3.97;;;1.05;;
18082;SDS011;9168;51.194;6.840;2023-01-08T12:21:05;3.25;;;0.60;;
18082;SDS011;9168;51.194;6.840;2023-01-08T12:23:47;4.47;;;0.95;;
18082;SDS011;9168;51.194;6.840;2023-01-08T12:26:28;8.18;;;0.80;;
18082;SDS011;9168;51.194;6.840;2023-01-08T12:29:07;3.30;;;0.65;;
18082;SDS011;9168;51.194;6.840;2023-01-08T12:31:58;4.20;;;0.68;;
18082;SDS011;9168;51.194;6.840;2023-01-08T12:34:44;5.60;;;0.90;;
18082;SDS011;9168;51.194;6.840;2023-01-08T12:37:20;1.85;;;0.60;;
18082;SDS011;9168;51.194;6.840;2023-01-08T12:39:53;3.97;;;1.15;;
18082;SDS011;9168;51.194;6.840;2023-01-08T12:42:26;2.22;;;0.73;;
18082;SDS011;9168;51.194;6.840;2023-01-08T12:44:56;3.50;;;1.33;;
18082;SDS011;9168;51.194;6.840;2023-01-08T12:47:27;6.05;;;1.00;;
18082;SDS011;9168;51.194;6.840;2023-01-08T12:50:00;4.15;;;1.13;;
18082;SDS011;9168;51.194;6.840;2023-01-08T12:52:38;3.70;;;1.15;;
18082;SDS011;9168;51.194;6.840;2023-01-08T12:55:16;5.65;;;1.15;;
18082;SDS011;9168;51.194;6.840;2023-01-08T12:57:58;4.10;;;1.20;;
18082;SDS011;9168;51.194;6.840;2023-01-08T13:00:35;4.05;;;1.20;;
18082;SDS011;9168;51.194;6.840;2023-01-08T13:03:09;8.60;;;1.70;;
18082;SDS011;9168;51.194;6.840;2023-01-08T13:05:39;5.07;;;1.55;;
18082;SDS011;9168;51.194;6.840;2023-01-08T13:08:19;2.97;;;1.20;;
18082;SDS011;9168;51.194;6.840;2023-01-08T13:10:52;4.22;;;1.48;;
18082;SDS011;9168;51.194;6.840;2023-01-08T13:13:24;3.00;;;1.35;;
18082;SDS011;9168;51.194;6.840;2023-01-08T13:16:03;2.95;;;1.02;;
18082;SDS011;9168;51.194;6.840;2023-01-08T13:18:49;4.50;;;1.58;;
18082;SDS011;9168;51.194;6.840;2023-01-08T13:21:17;4.32;;;1.50;;
18082;SDS011;9168;51.194;6.840;2023-01-08T13:23:57;2.70;;;1.00;;
18082;SDS011;9168;51.194;6.840;2023-01-08T13:26:28;3.83;;;1.00;;
18082;SDS011;9168;51.194;6.840;2023-01-08T13:29:05;3.15;;;1.20;;
18082;SDS011;9168;51.194;6.840;2023-01-08T13:31:37;7.07;;;1.05;;
18082;SDS011;9168;51.194;6.840;2023-01-08T13:34:17;4.03;;;0.90;;
18082;SDS011;9168;51.194;6.840;2023-01-08T13:36:55;5.00;;;0.90;;
18082;SDS011;9168;51.194;6.840;2023-01-08T13:39:30;4.78;;;0.80;;
18082;SDS011;9168;51.194;6.840;2023-01-08T13:42:01;1.58;;;0.88;;
18082;SDS011;9168;51.194;6.840;2023-01-08T13:44:38;2.67;;;0.70;;
18082;SDS011;9168;51.194;6.840;2023-01-08T13:47:16;2.78;;;0.70;;
18082;SDS011;9168;51.194;6.840;2023-01-08T13:49:47;3.42;;;0.80;;
18082;SDS011;9168;51.194;6.840;2023-01-08T13:52:30;3.22;;;1.20;;
18082;SDS011;9168;51.194;6.840;2023-01-08T13:55:02;1.33;;;0.70;;
18082;SDS011;9168;51.194;6.840;2023-01-08T13:57:35;1.20;;;0.60;;
18082;SDS011;9168;51.194;6.840;2023-01-08T14:00:06;2.58;;;0.70;;
18082;SDS011;9168;51.194;6.840;2023-01-08T14:02:40;2.33;;;0.50;;
18082;SDS011;9168;51.194;6.840;2023-01-08T14:05:18;3.22;;;0.77;;
18082;SDS011;9168;51.194;6.840;2023-01-08T14:07:48;7.18;;;1.80;;
18082;SDS011;9168;51.194;6.840;2023-01-08T14:10:15;4.05;;;1.80;;
18082;SDS011;9168;51.194;6.840;2023-01-08T14:12:43;2.78;;;1.10;;
18082;SDS011;9168;51.194;6.840;2023-01-08T14:15:16;1.73;;;0.80;;
18082;SDS011;9168;51.194;6.840;2023-01-08T14:17:48;2.53;;;0.60;;
18082;SDS011;9168;51.194;6.840;2023-01-08T14:20:19;2.17;;;0.80;;
18082;SDS011;9168;51.194;6.840;2023-01-08T14:22:51;4.28;;;0.85;;
18082;SDS011;9168;51.194;6.840;2023-01-08T14:25:18;1.50;;;0.55;;
18082;SDS011;9168;51.194;6.840;2023-01-08T14:30:32;4.55;;;0.80;;
18082;SDS011;9168;51.194;6.840;2023-01-08T14:32:59;1.63;;;0.70;;
18082;SDS011;9168;51.194;6.840;2023-01-08T14:35:31;1.95;;;0.80;;
18082;SDS011;9168;51.194;6.840;2023-01-08T14:37:59;4.32;;;0.50;;
18082;SDS011;9168;51.194;6.840;2023-01-08T14:40:28;2.15;;;0.73;;
18082;SDS011;9168;51.194;6.840;2023-01-08T14:42:57;6.40;;;0.70;;
18082;SDS011;9168;51.194;6.840;2023-01-08T14:45:30;1.65;;;0.80;;
18082;SDS011;9168;51.194;6.840;2023-01-08T14:47:59;2.88;;;0.80;;
18082;SDS011;9168;51.194;6.840;2023-01-08T14:50:35;1.70;;;0.70;;
18082;SDS011;9168;51.194;6.840;2023-01-08T14:53:05;2.78;;;0.60;;
18082;SDS011;9168;51.194;6.840;2023-01-08T14:55:35;4.72;;;0.75;;
18082;SDS011;9168;51.194;6.840;2023-01-08T14:58:10;2.83;;;0.82;;
18082;SDS011;9168;51.194;6.840;2023-01-08T15:00:42;4.32;;;0.65;;
18082;SDS011;9168;51.194;6.840;2023-01-08T15:03:25;3.63;;;0.70;;
18082;SDS011;9168;51.194;6.840;2023-01-08T15:05:55;2.58;;;0.63;;
18082;SDS011;9168;51.194;6.840;2023-01-08T15:08:23;9.07;;;1.73;;
18082;SDS011;9168;51.194;6.840;2023-01-08T15:10:58;3.15;;;0.75;;
18082;SDS011;9168;51.194;6.840;2023-01-08T15:13:29;2.67;;;0.93;;
18082;SDS011;9168;51.194;6.840;2023-01-08T15:15:59;3.03;;;0.73;;
18082;SDS011;9168;51.194;6.840;2023-01-08T15:18:33;4.20;;;0.90;;
18082;SDS011;9168;51.194;6.840;2023-01-08T15:21:08;5.45;;;0.70;;
18082;SDS011;9168;51.194;6.840;2023-01-08T15:23:37;6.72;;;1.10;;